sensor_id;sensor_type;location;lat;lon;timestamp;pressure;altitude;pressure_sealevel;temperature;humidity
62011;BME280;47967;51.756;10.174;2023-08-06T04:01:22;98717.16;;;14.76;100.00
62011;BME280;47967;51.756;10.174;2023-08-06T04:05:26;98704.50;;;14.65;100.00
62011;BME280;47967;51.756;10.174;2023-08-06T04:09:29;98707.00;;;14.66;100.00
62011;BME280;47967;51.756;10.174;2023-08-06T04:13:32;98705.09;;;14.67;100.00
62011;BME280;47967;51.756;10.174;2023-08-06T04:17:36;98713.59;;;14.76;100.00
62011;BME280;47967;51.756;10.174;2023-08-06T04:21:38;98718.16;;;14.70;100.00
62011;BME280;47967;51.756;10.174;2023-08-06T04:25:41;98718.00;;;14.60;100.00
62011;BME280;47967;51.756;10.174;2023-08-06T04:29:44;98707.41;;;14.58;100.00
62011;BME280;47967;51.756;10.174;2023-08-06T04:33:48;98713.22;;;14.67;100.00
62011;BME280;47967;51.756;10.174;2023-08-06T04:37:51;98721.25;;;14.79;100.00
62011;BME280;47967;51.756;10.174;2023-08-06T04:41:55;98724.16;;;14.94;100.00
62011;BME280;47967;51.756;10.174;2023-08-06T04:45:58;98723.88;;;14.96;100.00
62011;BME280;47967;51.756;10.174;2023-08-06T04:50:02;98725.09;;;15.05;100.00
62011;BME280;47967;51.756;10.174;2023-08-06T04:54:05;98721.34;;;15.11;100.00
62011;BME280;47967;51.756;10.174;2023-08-06T04:58:09;98724.09;;;15.16;100.00
62011;BME280;47967;51.756;10.174;2023-08-06T05:02:11;98721.34;;;15.11;100.00
62011;BME280;47967;51.756;10.174;2023-08-06T05:06:15;98721.97;;;15.18;100.00
62011;BME280;47967;51.756;10.174;2023-08-06T05:10:18;98726.91;;;15.27;100.00
62011;BME280;47967;51.756;10.174;2023-08-06T05:14:21;98712.38;;;15.38;100.00
62011;BME280;47967;51.756;10.174;2023-08-06T05:18:23;98710.59;;;15.27;100.00
62011;BME280;47967;51.756;10.174;2023-08-06T05:22:27;98710.56;;;15.21;100.00
62011;BME280;47967;51.756;10.174;2023-08-06T05:26:30;98705.44;;;15.25;100.00
62011;BME280;47967;51.756;10.174;2023-08-06T05:30:33;98710.56;;;15.21;100.00
62011;BME280;47967;51.756;10.174;2023-08-06T05:34:38;98719.03;;;15.25;100.00
62011;BME280;47967;51.756;10.174;2023-08-06T05:38:44;98715.59;;;15.35;100.00
62011;BME280;47967;51.756;10.174;2023-08-06T05:42:46;98712.19;;;15.50;100.00
62011;BME280;47967;51.756;10.174;2023-08-06T05:46:49;98710.75;;;15.75;100.00
62011;BME280;47967;51.756;10.174;2023-08-06T05:50:53;98705.16;;;15.87;100.00
62011;BME280;47967;51.756;10.174;2023-08-06T05:54:57;98698.63;;;15.88;100.00
62011;BME280;47967;51.756;10.174;2023-08-06T05:58:59;98697.63;;;15.99;100.00
62011;BME280;47967;51.756;10.174;2023-08-06T06:03:02;98695.25;;;16.13;100.00
62011;BME280;47967;51.756;10.174;2023-08-06T06:07:05;98695.59;;;16.22;100.00
62011;BME280;47967;51.756;10.174;2023-08-06T06:11:09;98690.72;;;16.29;100.00
62011;BME280;47967;51.756;10.174;2023-08-06T06:15:11;98698.44;;;16.47;100.00
62011;BME280;47967;51.756;10.174;2023-08-06T06:19:14;98688.19;;;16.75;100.00
62011;BME280;47967;51.756;10.174;2023-08-06T06:23:17;98688.28;;;16.96;100.00
62011;BME280;47967;51.756;10.174;2023-08-06T06:27:21;98684.22;;;17.19;100.00
62011;BME280;47967;51.756;10.174;2023-08-06T06:31:24;98684.78;;;17.37;100.00
62011;BME280;47967;51.756;10.174;2023-08-06T06:35:26;98683.44;;;17.29;100.00
62011;BME280;47967;51.756;10.174;2023-08-06T06:39:29;98685.63;;;17.32;100.00
62011;BME280;47967;51.756;10.174;2023-08-06T06:43:33;98677.97;;;17.60;100.00
62011;BME280;47967;51.756;10.174;2023-08-06T06:47:35;98677.97;;;17.81;100.00
62011;BME280;47967;51.756;10.174;2023-08-06T06:51:38;98674.41;;;18.01;100.00
62011;BME280;47967;51.756;10.174;2023-08-06T06:55:41;98667.88;;;18.02;100.00
62011;BME280;47967;51.756;10.174;2023-08-06T06:59:45;98668.13;;;18.05;100.00
62011;BME280;47967;51.756;10.174;2023-08-06T07:03:48;98666.44;;;18.25;100.00
62011;BME280;47967;51.756;10.174;2023-08-06T07:07:52;98660.69;;;18.32;100.00
62011;BME280;47967;51.756;10.174;2023-08-06T07:11:54;98661.78;;;18.36;100.00
62011;BME280;47967;51.756;10.174;2023-08-06T07:15:58;98660.66;;;18.42;100.00
62011;BME280;47967;51.756;10.174;2023-08-06T07:20:01;98657.91;;;18.42;100.00
62011;BME280;47967;51.756;10.174;2023-08-06T07:24:04;98653.47;;;18.56;100.00
62011;BME280;47967;51.756;10.174;2023-08-06T07:28:07;98651.94;;;18.90;100.00
62011;BME280;47967;51.756;10.174;2023-08-06T07:32:11;98644.78;;;19.04;100.00
62011;BME280;47967;51.756;10.174;2023-08-06T07:36:14;98639.81;;;19.12;100.00
62011;BME280;47967;51.756;10.174;2023-08-06T07:40:17;98647.25;;;19.35;100.00
62011;BME280;47967;51.756;10.174;2023-08-06T07:44:20;98646.59;;;19.49;100.00
62011;BME280;47967;51.756;10.174;2023-08-06T07:48:24;98653.63;;;19.60;100.00
62011;BME280;47967;51.756;10.174;2023-08-06T07:52:26;98655.91;;;19.82;100.00
62011;BME280;47967;51.756;10.174;2023-08-06T07:56:29;98643.59;;;20.09;100.00
62011;BME280;47967;51.756;10.174;2023-08-06T08:00:32;98646.19;;;20.44;100.00
62011;BME280;47967;51.756;10.174;2023-08-06T08:04:36;98633.91;;;20.41;99.64
62011;BME280;47967;51.756;10.174;2023-08-06T08:08:38;98634.25;;;20.35;98.24
62011;BME280;47967;51.756;10.174;2023-08-06T08:12:41;98633.06;;;20.41;99.66
62011;BME280;47967;51.756;10.174;2023-08-06T08:16:44;98629.50;;;20.64;96.27
62011;BME280;47967;51.756;10.174;2023-08-06T08:20:48;98631.16;;;20.85;95.50
62011;BME280;47967;51.756;10.174;2023-08-06T08:24:51;98626.34;;;20.95;94.83
62011;BME280;47967;51.756;10.174;2023-08-06T08:28:53;98622.00;;;21.27;93.58
62011;BME280;47967;51.756;10.174;2023-08-06T08:32:56;98619.88;;;21.24;89.50
62011;BME280;47967;51.756;10.174;2023-08-06T08:37:00;98618.25;;;21.56;88.22
62011;BME280;47967;51.756;10.174;2023-08-06T08:41:03;98622.31;;;21.59;87.59
62011;BME280;47967;51.756;10.174;2023-08-06T08:45:10;98615.75;;;21.74;86.79
62011;BME280;47967;51.756;10.174;2023-08-06T08:49:15;98613.50;;;21.76;85.46
62011;BME280;47967;51.756;10.174;2023-08-06T08:53:21;98614.63;;;21.75;86.83
62011;BME280;47967;51.756;10.174;2023-08-06T08:57:24;98615.97;;;22.05;85.13
62011;BME280;47967;51.756;10.174;2023-08-06T09:01:27;98610.19;;;22.21;85.05
62011;BME280;47967;51.756;10.174;2023-08-06T09:05:31;98604.16;;;22.19;81.31
62011;BME280;47967;51.756;10.174;2023-08-06T09:09:36;98604.47;;;22.17;83.89
62011;BME280;47967;51.756;10.174;2023-08-06T09:13:44;98597.38;;;22.30;81.80
62011;BME280;47967;51.756;10.174;2023-08-06T09:17:47;98598.28;;;22.26;79.87
62011;BME280;47967;51.756;10.174;2023-08-06T09:21:51;98589.91;;;22.59;77.58
62011;BME280;47967;51.756;10.174;2023-08-06T09:25:56;98592.31;;;22.74;77.68
62011;BME280;47967;51.756;10.174;2023-08-06T09:29:58;98595.94;;;23.20;76.46
62011;BME280;47967;51.756;10.174;2023-08-06T09:34:02;98592.72;;;23.49;75.77
62011;BME280;47967;51.756;10.174;2023-08-06T09:38:05;98583.19;;;23.24;74.12
62011;BME280;47967;51.756;10.174;2023-08-06T09:42:14;98585.63;;;23.12;75.74
62011;BME280;47967;51.756;10.174;2023-08-06T09:46:17;98579.41;;;22.97;71.02
62011;BME280;47967;51.756;10.174;2023-08-06T09:50:20;98573.63;;;23.53;70.63
62011;BME280;47967;51.756;10.174;2023-08-06T09:54:24;98586.13;;;23.91;68.85
62011;BME280;47967;51.756;10.174;2023-08-06T09:58:30;98584.44;;;24.12;63.07
62011;BME280;47967;51.756;10.174;2023-08-06T10:02:35;98579.88;;;24.08;60.67
62011;BME280;47967;51.756;10.174;2023-08-06T10:06:38;98575.56;;;23.84;63.12
62011;BME280;47967;51.756;10.174;2023-08-06T10:10:41;98562.72;;;24.11;62.78
62011;BME280;47967;51.756;10.174;2023-08-06T10:14:45;98561.53;;;23.94;63.50
62011;BME280;47967;51.756;10.174;2023-08-06T10:18:50;98546.16;;;24.02;62.57
62011;BME280;47967;51.756;10.174;2023-08-06T10:23:01;98539.25;;;24.22;59.70
62011;BME280;47967;51.756;10.174;2023-08-06T10:27:04;98541.28;;;23.59;62.36
62011;BME280;47967;51.756;10.174;2023-08-06T10:31:10;98541.78;;;23.29;64.60
62011;BME280;47967;51.756;10.174;2023-08-06T10:35:28;98535.03;;;23.44;64.33
62011;BME280;47967;51.756;10.174;2023-08-06T10:39:32;98522.88;;;23.77;61.66
62011;BME280;47967;51.756;10.174;2023-08-06T10:43:35;98514.09;;;23.66;60.94
62011;BME280;47967;51.756;10.174;2023-08-06T10:47:50;98516.84;;;24.15;59.90
62011;BME280;47967;51.756;10.174;2023-08-06T10:51:53;98510.41;;;24.81;59.93
62011;BME280;47967;51.756;10.174;2023-08-06T10:55:56;98510.53;;;25.20;55.99
62011;BME280;47967;51.756;10.174;2023-08-06T10:59:59;98507.53;;;25.42;49.38
62011;BME280;47967;51.756;10.174;2023-08-06T11:04:06;98514.34;;;25.84;46.98
62011;BME280;47967;51.756;10.174;2023-08-06T11:08:09;98509.06;;;26.00;51.25
62011;BME280;47967;51.756;10.174;2023-08-06T11:12:12;98494.31;;;26.47;58.29
62011;BME280;47967;51.756;10.174;2023-08-06T11:16:22;98494.66;;;25.94;57.92
62011;BME280;47967;51.756;10.174;2023-08-06T11:20:27;98483.06;;;26.01;58.12
62011;BME280;47967;51.756;10.174;2023-08-06T11:24:30;98486.97;;;26.30;54.47
62011;BME280;47967;51.756;10.174;2023-08-06T11:28:33;98479.88;;;26.20;56.70
62011;BME280;47967;51.756;10.174;2023-08-06T11:32:45;98479.19;;;25.24;57.94
62011;BME280;47967;51.756;10.174;2023-08-06T11:36:49;98479.91;;;24.95;64.39
62011;BME280;47967;51.756;10.174;2023-08-06T11:40:52;98473.78;;;25.37;62.54
62011;BME280;47967;51.756;10.174;2023-08-06T11:44:56;98477.66;;;25.45;60.86
62011;BME280;47967;51.756;10.174;2023-08-06T11:48:59;98469.56;;;25.39;58.70
62011;BME280;47967;51.756;10.174;2023-08-06T11:53:03;98466.81;;;25.99;55.93
62011;BME280;47967;51.756;10.174;2023-08-06T11:57:06;98473.69;;;26.44;51.75
62011;BME280;47967;51.756;10.174;2023-08-06T12:01:09;98469.72;;;26.88;52.01
62011;BME280;47967;51.756;10.174;2023-08-06T12:05:12;98460.91;;;27.19;47.58
62011;BME280;47967;51.756;10.174;2023-08-06T12:09:16;98451.94;;;27.22;49.34
62011;BME280;47967;51.756;10.174;2023-08-06T12:13:19;98451.38;;;27.91;46.03
62011;BME280;47967;51.756;10.174;2023-08-06T12:17:21;98447.25;;;27.85;47.23
62011;BME280;47967;51.756;10.174;2023-08-06T12:21:24;98442.38;;;27.69;44.51
62011;BME280;47967;51.756;10.174;2023-08-06T12:25:28;98443.34;;;26.69;46.14
62011;BME280;47967;51.756;10.174;2023-08-06T12:29:31;98438.25;;;26.59;46.07
62011;BME280;47967;51.756;10.174;2023-08-06T12:33:33;98434.56;;;26.12;47.70
62011;BME280;47967;51.756;10.174;2023-08-06T12:37:36;98427.75;;;25.50;49.43
62011;BME280;47967;51.756;10.174;2023-08-06T12:41:41;98435.13;;;25.67;48.28
62011;BME280;47967;51.756;10.174;2023-08-06T12:45:45;98427.97;;;26.59;46.93
62011;BME280;47967;51.756;10.174;2023-08-06T12:49:48;98425.66;;;27.66;42.59
62011;BME280;47967;51.756;10.174;2023-08-06T12:53:51;98430.44;;;26.40;51.20
62011;BME280;47967;51.756;10.174;2023-08-06T12:57:55;98434.59;;;24.96;60.54
62011;BME280;47967;51.756;10.174;2023-08-06T13:01:59;98435.94;;;24.81;59.56
62011;BME280;47967;51.756;10.174;2023-08-06T13:06:02;98434.75;;;25.08;58.18
62011;BME280;47967;51.756;10.174;2023-08-06T13:10:06;98441.63;;;25.71;53.52
62011;BME280;47967;51.756;10.174;2023-08-06T13:14:11;98439.25;;;25.13;55.19
62011;BME280;47967;51.756;10.174;2023-08-06T13:18:14;98442.78;;;24.66;54.09
62011;BME280;47967;51.756;10.174;2023-08-06T13:22:16;98436.44;;;24.74;52.29
62011;BME280;47967;51.756;10.174;2023-08-06T13:26:19;98446.44;;;25.05;48.97
62011;BME280;47967;51.756;10.174;2023-08-06T13:30:23;98439.28;;;25.52;49.26
62011;BME280;47967;51.756;10.174;2023-08-06T13:34:26;98442.88;;;24.96;52.56
62011;BME280;47967;51.756;10.174;2023-08-06T13:38:28;98431.94;;;25.17;51.22
62011;BME280;47967;51.756;10.174;2023-08-06T13:42:31;98420.63;;;25.01;53.39
62011;BME280;47967;51.756;10.174;2023-08-06T13:46:35;98422.69;;;25.13;50.85
62011;BME280;47967;51.756;10.174;2023-08-06T13:50:38;98424.50;;;25.56;53.14
62011;BME280;47967;51.756;10.174;2023-08-06T13:54:41;98440.81;;;25.40;46.76
62011;BME280;47967;51.756;10.174;2023-08-06T13:58:44;98430.75;;;25.66;45.93
62011;BME280;47967;51.756;10.174;2023-08-06T14:02:48;98432.91;;;25.60;46.17
62011;BME280;47967;51.756;10.174;2023-08-06T14:06:51;98432.03;;;25.98;44.89
62011;BME280;47967;51.756;10.174;2023-08-06T14:10:54;98424.09;;;26.73;43.68
62011;BME280;47967;51.756;10.174;2023-08-06T14:14:57;98428.47;;;25.98;45.13
62011;BME280;47967;51.756;10.174;2023-08-06T14:19:02;98411.97;;;26.31;45.70
62011;BME280;47967;51.756;10.174;2023-08-06T14:23:04;98404.63;;;26.35;46.49
62011;BME280;47967;51.756;10.174;2023-08-06T14:27:07;98411.63;;;26.12;48.93
62011;BME280;47967;51.756;10.174;2023-08-06T14:31:11;98414.59;;;26.28;47.41
62011;BME280;47967;51.756;10.174;2023-08-06T14:35:15;98410.41;;;26.43;47.59
62011;BME280;47967;51.756;10.174;2023-08-06T14:39:18;98422.91;;;25.77;48.01
62011;BME280;47967;51.756;10.174;2023-08-06T14:43:20;98422.91;;;26.07;47.89
62011;BME280;47967;51.756;10.174;2023-08-06T14:47:23;98423.59;;;26.79;45.57
62011;BME280;47967;51.756;10.174;2023-08-06T14:51:27;98430.28;;;27.49;44.59
62011;BME280;47967;51.756;10.174;2023-08-06T14:55:30;98436.84;;;27.32;44.05
62011;BME280;47967;51.756;10.174;2023-08-06T14:59:32;98445.59;;;26.55;45.41
62011;BME280;47967;51.756;10.174;2023-08-06T15:03:35;98453.84;;;25.91;45.71
62011;BME280;47967;51.756;10.174;2023-08-06T15:07:39;98438.50;;;25.51;49.02
62011;BME280;47967;51.756;10.174;2023-08-06T15:11:41;98466.09;;;25.81;44.43
62011;BME280;47967;51.756;10.174;2023-08-06T15:15:46;98454.56;;;25.79;44.94
62011;BME280;47967;51.756;10.174;2023-08-06T15:19:48;98477.91;;;25.61;43.33
62011;BME280;47967;51.756;10.174;2023-08-06T15:23:52;98470.06;;;25.71;44.72
62011;BME280;47967;51.756;10.174;2023-08-06T15:27:55;98471.53;;;25.21;46.05
62011;BME280;47967;51.756;10.174;2023-08-06T15:31:58;98496.94;;;24.62;47.52
62011;BME280;47967;51.756;10.174;2023-08-06T15:36:00;98485.94;;;24.62;49.22
62011;BME280;47967;51.756;10.174;2023-08-06T15:40:05;98492.56;;;24.35;50.20
62011;BME280;47967;51.756;10.174;2023-08-06T15:44:08;98493.00;;;24.10;51.65
62011;BME280;47967;51.756;10.174;2023-08-06T15:48:10;98497.41;;;23.71;54.20
62011;BME280;47967;51.756;10.174;2023-08-06T15:52:13;98518.38;;;22.95;63.19
62011;BME280;47967;51.756;10.174;2023-08-06T15:56:17;98513.63;;;22.28;66.88
62011;BME280;47967;51.756;10.174;2023-08-06T16:00:20;98519.09;;;21.44;70.86
62011;BME280;47967;51.756;10.174;2023-08-06T16:04:22;98525.78;;;20.91;74.94
62011;BME280;47967;51.756;10.174;2023-08-06T16:08:25;98532.44;;;21.04;73.94
62011;BME280;47967;51.756;10.174;2023-08-06T16:12:30;98531.69;;;20.98;75.50
62011;BME280;47967;51.756;10.174;2023-08-06T16:16:33;98549.50;;;20.62;79.72
62011;BME280;47967;51.756;10.174;2023-08-06T16:20:41;98543.66;;;20.50;80.86
62011;BME280;47967;51.756;10.174;2023-08-06T16:24:44;98552.22;;;20.62;79.41
62011;BME280;47967;51.756;10.174;2023-08-06T16:28:48;98553.28;;;20.47;80.70
62011;BME280;47967;51.756;10.174;2023-08-06T16:32:50;98550.59;;;20.23;84.41
62011;BME280;47967;51.756;10.174;2023-08-06T16:36:53;98563.84;;;19.92;88.91
62011;BME280;47967;51.756;10.174;2023-08-06T16:40:57;98571.25;;;19.62;95.87
62011;BME280;47967;51.756;10.174;2023-08-06T16:45:02;98575.59;;;19.04;100.00
62011;BME280;47967;51.756;10.174;2023-08-06T16:49:05;98601.22;;;18.68;100.00
62011;BME280;47967;51.756;10.174;2023-08-06T16:53:08;98601.09;;;18.49;100.00
62011;BME280;47967;51.756;10.174;2023-08-06T16:57:11;98626.72;;;17.57;100.00
62011;BME280;47967;51.756;10.174;2023-08-06T17:01:16;98610.94;;;17.12;100.00
62011;BME280;47967;51.756;10.174;2023-08-06T17:05:19;98614.88;;;16.53;100.00
62011;BME280;47967;51.756;10.174;2023-08-06T17:09:21;98611.56;;;16.41;100.00
62011;BME280;47967;51.756;10.174;2023-08-06T17:13:24;98624.91;;;16.37;100.00
62011;BME280;47967;51.756;10.174;2023-08-06T17:17:28;98632.38;;;16.04;100.00
62011;BME280;47967;51.756;10.174;2023-08-06T17:21:31;98648.22;;;15.75;100.00
62011;BME280;47967;51.756;10.174;2023-08-06T17:25:36;98625.41;;;15.81;100.00
62011;BME280;47967;51.756;10.174;2023-08-06T17:29:39;98622.38;;;15.72;100.00
62011;BME280;47967;51.756;10.174;2023-08-06T17:33:43;98630.59;;;15.82;100.00
62011;BME280;47967;51.756;10.174;2023-08-06T17:37:46;98640.34;;;15.78;100.00
62011;BME280;47967;51.756;10.174;2023-08-06T17:41:49;98644.91;;;15.67;100.00
62011;BME280;47967;51.756;10.174;2023-08-06T17:45:51;98645.97;;;15.66;100.00
62011;BME280;47967;51.756;10.174;2023-08-06T17:49:55;98656.09;;;15.71;100.00
62011;BME280;47967;51.756;10.174;2023-08-06T17:53:58;98655.31;;;15.81;100.00
62011;BME280;47967;51.756;10.174;2023-08-06T17:58:01;98660.19;;;15.74;100.00
62011;BME280;47967;51.756;10.174;2023-08-06T18:02:05;98658.75;;;15.66;100.00
62011;BME280;47967;51.756;10.174;2023-08-06T18:06:09;98667.19;;;15.69;100.00
62011;BME280;47967;51.756;10.174;2023-08-06T18:10:12;98673.94;;;15.62;100.00
62011;BME280;47967;51.756;10.174;2023-08-06T18:14:15;98673.69;;;15.63;100.00
62011;BME280;47967;51.756;10.174;2023-08-06T18:18:18;98678.13;;;15.75;100.00
62011;BME280;47967;51.756;10.174;2023-08-06T18:22:22;98682.94;;;16.00;100.00
62011;BME280;47967;51.756;10.174;2023-08-06T18:26:24;98672.41;;;16.09;100.00
62011;BME280;47967;51.756;10.174;2023-08-06T18:30:27;98691.19;;;16.15;100.00
62011;BME280;47967;51.756;10.174;2023-08-06T18:34:30;98695.56;;;16.16;100.00
62011;BME280;47967;51.756;10.174;2023-08-06T18:38:34;98696.66;;;16.21;100.00
62011;BME280;47967;51.756;10.174;2023-08-06T18:42:36;98685.56;;;16.27;100.00
62011;BME280;47967;51.756;10.174;2023-08-06T18:46:43;98685.06;;;16.36;100.00
62011;BME280;47967;51.756;10.174;2023-08-06T18:50:45;98687.25;;;16.44;100.00
62011;BME280;47967;51.756;10.174;2023-08-06T18:54:49;98697.31;;;16.38;100.00
62011;BME280;47967;51.756;10.174;2023-08-06T18:58:52;98691.59;;;16.35;100.00
62011;BME280;47967;51.756;10.174;2023-08-06T19:02:55;98690.22;;;16.37;100.00
62011;BME280;47967;51.756;10.174;2023-08-06T19:06:58;98703.53;;;16.28;100.00
62011;BME280;47967;51.756;10.174;2023-08-06T19:11:02;98699.34;;;16.10;100.00
62011;BME280;47967;51.756;10.174;2023-08-06T19:15:06;98702.06;;;16.15;100.00
62011;BME280;47967;51.756;10.174;2023-08-06T19:19:09;98704.00;;;16.15;100.00
62011;BME280;47967;51.756;10.174;2023-08-06T19:23:12;98713.06;;;16.31;100.00
62011;BME280;47967;51.756;10.174;2023-08-06T19:27:18;98712.53;;;16.39;100.00
62011;BME280;47967;51.756;10.174;2023-08-06T19:31:21;98714.75;;;16.47;100.00
62011;BME280;47967;51.756;10.174;2023-08-06T19:35:24;98720.78;;;16.49;100.00
62011;BME280;47967;51.756;10.174;2023-08-06T19:39:27;98716.69;;;16.52;100.00
62011;BME280;47967;51.756;10.174;2023-08-06T19:43:31;98736.25;;;16.44;100.00
62011;BME280;47967;51.756;10.174;2023-08-06T19:47:34;98736.53;;;15.99;100.00
62011;BME280;47967;51.756;10.174;2023-08-06T19:51:36;98737.06;;;15.64;100.00
62011;BME280;47967;51.756;10.174;2023-08-06T19:55:41;98726.31;;;15.47;100.00
62011;BME280;47967;51.756;10.174;2023-08-06T19:59:45;98726.00;;;15.43;100.00
62011;BME280;47967;51.756;10.174;2023-08-06T20:03:48;98730.34;;;15.44;100.00
62011;BME280;47967;51.756;10.174;2023-08-06T20:07:50;98746.28;;;15.35;100.00
62011;BME280;47967;51.756;10.174;2023-08-06T20:11:53;98730.28;;;15.39;100.00
62011;BME280;47967;51.756;10.174;2023-08-06T20:15:57;98743.28;;;15.32;100.00
62011;BME280;47967;51.756;10.174;2023-08-06T20:20:02;98740.56;;;15.32;100.00
62011;BME280;47967;51.756;10.174;2023-08-06T20:24:04;98733.38;;;15.20;100.00
62011;BME280;47967;51.756;10.174;2023-08-06T20:28:07;98741.78;;;14.92;100.00
62011;BME280;47967;51.756;10.174;2023-08-06T20:32:11;98749.22;;;14.79;100.00
62011;BME280;47967;51.756;10.174;2023-08-06T20:36:14;98732.03;;;14.96;100.00
62011;BME280;47967;51.756;10.174;2023-08-06T20:40:17;98728.56;;;15.00;100.00
62011;BME280;47967;51.756;10.174;2023-08-06T20:44:19;98721.31;;;14.84;100.00
62011;BME280;47967;51.756;10.174;2023-08-06T20:48:23;98725.53;;;14.97;100.00
62011;BME280;47967;51.756;10.174;2023-08-06T20:52:27;98723.63;;;14.97;100.00
62011;BME280;47967;51.756;10.174;2023-08-06T20:56:30;98730.38;;;14.95;100.00
